Hamois, Belgium
Current Conditions -  °F | °C
As of 2:25 PM on Tuesday 21 Oct 2014 (Local Time) from EBFS Reporting Station
Light Rain Light Rain  
Wind Chill: 54°   Ceiling: 1200
Heat Index: 54°   Visibility: 6mi
Dew Point: 52°   Wind: 20mph
Humidity: 94%   Direction: 230°SW
Pressure: 29.62"   Gusts: 31mph
Location:  50.34°N, 5.16°E
Report Text: EBFS 211225Z 23017G27KT 9000 -RA FEW007 BKN012 BKN022 12/11 Q1003 GRN GRN TEMPO YLO
Loading
Personal Weather Stations






























Interactive Weather Map
Tropical Storm Tracking
New forecast layout! Learn more

10-Day Weather Forecast

Advertisements
Track Severe Weather on mobile